Map

Track Data

SID SEASON NUMBER BASIN SUBBASIN NAME ISO_TIME NATURE LAT LON WMO_WIND WMO_PRES WMO_AGENCY TRACK_TYPE DIST2LAND LANDFALL IFLAG USA_AGENCY USA_ATCF_ID USA_LAT USA_LON USA_RECORD USA_STATUS USA_WIND USA_PRES USA_SSHS USA_R34_NE USA_R34_SE USA_R34_SW USA_R34_NW USA_R50_NE USA_R50_SE USA_R50_SW USA_R50_NW USA_R64_NE USA_R64_SE USA_R64_SW USA_R64_NW USA_POCI USA_ROCI USA_RMW USA_EYE TOKYO_LAT TOKYO_LON TOKYO_GRADE TOKYO_WIND TOKYO_PRES TOKYO_R50_DIR TOKYO_R50_LONG TOKYO_R50_SHORT TOKYO_R30_DIR TOKYO_R30_LONG TOKYO_R30_SHORT TOKYO_LAND CMA_LAT CMA_LON CMA_CAT CMA_WIND CMA_PRES HKO_LAT HKO_LON HKO_CAT HKO_WIND HKO_PRES NEWDELHI_LAT NEWDELHI_LON NEWDELHI_GRADE NEWDELHI_WIND NEWDELHI_PRES NEWDELHI_CI NEWDELHI_DP NEWDELHI_POCI REUNION_LAT REUNION_LON REUNION_TYPE REUNION_WIND REUNION_PRES REUNION_TNUM REUNION_CI REUNION_RMW REUNION_R34_NE REUNION_R34_SE REUNION_R34_SW REUNION_R34_NW REUNION_R50_NE REUNION_R50_SE REUNION_R50_SW REUNION_R50_NW REUNION_R64_NE REUNION_R64_SE REUNION_R64_SW REUNION_R64_NW BOM_LAT BOM_LON BOM_TYPE BOM_WIND BOM_PRES BOM_TNUM BOM_CI BOM_RMW BOM_R34_NE BOM_R34_SE BOM_R34_SW BOM_R34_NW BOM_R50_NE BOM_R50_SE BOM_R50_SW BOM_R50_NW BOM_R64_NE BOM_R64_SE BOM_R64_SW BOM_R64_NW BOM_ROCI BOM_POCI BOM_EYE BOM_POS_METHOD BOM_PRES_METHOD NADI_LAT NADI_LON NADI_CAT NADI_WIND NADI_PRES WELLINGTON_LAT WELLINGTON_LON WELLINGTON_WIND WELLINGTON_PRES DS824_LAT DS824_LON DS824_STAGE DS824_WIND DS824_PRES TD9636_LAT TD9636_LON TD9636_STAGE TD9636_WIND TD9636_PRES TD9635_LAT TD9635_LON TD9635_WIND TD9635_PRES TD9635_ROCI NEUMANN_LAT NEUMANN_LON NEUMANN_CLASS NEUMANN_WIND NEUMANN_PRES MLC_LAT MLC_LON MLC_CLASS MLC_WIND MLC_PRES USA_GUST BOM_GUST BOM_GUST_PER REUNION_GUST REUNION_GUST_PER USA_SEAHGT USA_SEARAD_NE USA_SEARAD_SE USA_SEARAD_SW USA_SEARAD_NW STORM_SPEED STORM_DIR
1881261N35292 1881 39 NA NA NOT_NAMED 1881-09-18 00:00:00 TS 35.3000 -68.0000 50 hurdat_atl main 679 675 O_____________ hurdat_atl AL071881 35.3000 -68.0000 TS 50 0 9 356
1881261N35292 1881 39 NA NA NOT_NAMED 1881-09-18 03:00:00 TS 35.7701 -68.0371 main 674 623 P_____________ AL071881 35.7701 -68.0371 TS 50 0 10 1
1881261N35292 1881 39 NA NA NOT_NAMED 1881-09-18 06:00:00 TS 36.3000 -68.0000 50 hurdat_atl main 623 566 O_____________ hurdat_atl AL071881 36.3000 -68.0000 TS 50 0 12 9
1881261N35292 1881 39 NA NA NOT_NAMED 1881-09-18 09:00:00 TS 36.9148 -67.8251 main 566 513 P_____________ AL071881 36.9148 -67.8251 TS 50 0 13 18
1881261N35292 1881 39 NA NA NOT_NAMED 1881-09-18 12:00:00 TS 37.5000 -67.5000 50 hurdat_atl main 513 489 O_____________ hurdat_atl AL071881 37.5000 -67.5000 TS 50 0 12 31
1881261N35292 1881 39 NA NA NOT_NAMED 1881-09-18 15:00:00 TS 37.9225 -67.0517 main 489 484 P_____________ AL071881 37.9225 -67.0517 TS 50 0 13 50
1881261N35292 1881 39 NA NA NOT_NAMED 1881-09-18 18:00:00 TS 38.3222 -66.2556 50 hurdat_atl main 491 487 O____________O hurdat_atl AL071881 38.3000 -66.5000 TS 50 0 38.5000 -64.3000 HU 65 13 53
1881261N35292 1881 39 NA NA NOT_NAMED 1881-09-18 21:00:00 TS 38.6812 -65.7466 main 493 484 P____________P AL071881 38.7266 -65.9583 TS 50 0 38.4869 -64.9521 HU 65 11 42
1881261N35292 1881 39 NA NA NOT_NAMED 1881-09-19 00:00:00 TS 39.1222 -65.3222 50 hurdat_atl main 489 426 O____________O hurdat_atl AL071881 39.2000 -65.3000 TS 50 0 38.5000 -65.5000 HU 65 15 43
1881261N35292 1881 39 NA NA NOT_NAMED 1881-09-19 03:00:00 TS 39.7657 -64.4242 main 418 385 P____________P AL071881 39.7657 -64.4242 TS 50 0 38.5656 -65.8594 HU 18 50
1881261N35292 1881 39 NA NA NOT_NAMED 1881-09-19 06:00:00 TS 40.3000 -63.5000 50 hurdat_atl main 385 373 O____________P hurdat_atl AL071881 40.3000 -63.5000 TS 50 0 38.6891 -66.0217 HU 16 54
1881261N35292 1881 39 NA NA NOT_NAMED 1881-09-19 09:00:00 TS 40.6786 -62.7474 main 377 373 P____________P AL071881 40.6786 -62.7474 TS 50 0 38.8698 -65.9966 HU 13 58
1881261N35292 1881 39 NA NA NOT_NAMED 1881-09-19 12:00:00 TS 41.0000 -62.0000 50 hurdat_atl main 386 382 O____________P hurdat_atl AL071881 41.0000 -62.0000 TS 50 0 39.1062 -65.7931 HU 14 61
1881261N35292 1881 39 NA NA NOT_NAMED 1881-09-19 15:00:00 TS 41.3579 -61.0927 main 390 387 P____________P AL071881 41.3579 -61.0927 TS 55 0 39.3960 -65.4193 HU 15 63
1881261N35292 1881 39 NA NA NOT_NAMED 1881-09-19 18:00:00 TS 41.7000 -60.2000 60 hurdat_atl main 391 375 O____________P hurdat_atl AL071881 41.7000 -60.2000 TS 60 0 39.7361 -64.8824 HU 13 62
1881261N35292 1881 39 NA NA NOT_NAMED 1881-09-19 21:00:00 TS 41.9982 -59.5053 main 378 367 P____________P AL071881 41.9982 -59.5053 TS 60 0 40.1233 -64.1892 HU 12 60
1881261N35292 1881 39 NA NA NOT_NAMED 1881-09-20 00:00:00 TS 42.3000 -58.8000 60 hurdat_atl main 371 365 O____________P hurdat_atl AL071881 42.3000 -58.8000 TS 60 0 40.5537 -63.3456 HU 14 62
1881261N35292 1881 39 NA NA NOT_NAMED 1881-09-20 03:00:00 TS 42.6426 -57.8873 main 385 382 P____________P AL071881 42.6426 -57.8873 TS 60 0 41.0233 -62.3569 HU 16 63
1881261N35292 1881 39 NA NA NOT_NAMED 1881-09-20 06:00:00 TS 43.0000 -56.9000 60 hurdat_atl main 400 389 O____________P hurdat_atl AL071881 43.0000 -56.9000 TS 60 0 41.5276 -61.2282 HU 16 64
1881261N35292 1881 39 NA NA NOT_NAMED 1881-09-20 09:00:00 TS 43.3496 -55.9342 main 389 340 P____________P AL071881 43.3496 -55.9342 TS 60 0 42.0621 -59.9639 HU 15 63
1881261N35292 1881 39 NA NA NOT_NAMED 1881-09-20 12:00:00 TS 43.7000 -55.0000 60 hurdat_atl main 340 308 O____________P hurdat_atl AL071881 43.7000 -55.0000 TS 60 0 42.6222 -58.5685 HU 12 60
1881261N35292 1881 39 NA NA NOT_NAMED 1881-09-20 15:00:00 TS 43.9533 -54.5042 main 297 256 P____________P AL071881 44.0558 -54.1636 TS 60 0 43.2031 -57.0459 HU 11 58
1881261N35292 1881 39 NA NA NOT_NAMED 1881-09-20 18:00:00 TS 44.2800 -53.7200 60 hurdat_atl main 255 224 O____________O hurdat_atl AL071881 44.4000 -53.3000 TS 60 0 43.8000 -55.4000 HU 70 15 64
1881261N35292 1881 39 NA NA NOT_NAMED 1881-09-20 21:00:00 TS 44.6120 -52.6320 main 227 214 P____________P AL071881 44.6925 -52.2708 TS 60 0 44.3859 -53.6395 HU 65 18 66
1881261N35292 1881 39 NA NA NOT_NAMED 1881-09-21 00:00:00 TS 45.0000 -51.4000 60 hurdat_atl main 225 225 O____________O hurdat_atl AL071881 45.0000 -51.2000 TS 60 0 45.0000 -51.8000 TS 60 20 64
1881261N35292 1881 39 NA NA NOT_NAMED 1881-09-21 03:00:00 TS 45.4869 -50.1154 main 265 265 P____________P AL071881 45.4070 -50.1708 TS 60 0 45.6469 -50.0045 TS 60 20 61
1881261N35292 1881 39 NA NA NOT_NAMED 1881-09-21 06:00:00 TS 45.9667 -48.8667 60 hurdat_atl main 325 325 O____________O hurdat_atl AL071881 45.8000 -49.2000 TS 60 0 46.3000 -48.2000 TS 60 19 63
1881261N35292 1881 39 NA NA NOT_NAMED 1881-09-21 09:00:00 TS 46.3587 -47.6129 main 397 397 P____________P AL071881 46.0641 -48.3102 TS 55 0 46.9478 -46.2182 TS 55 18 66
1881261N35292 1881 39 NA NA NOT_NAMED 1881-09-21 12:00:00 TS 46.7000 -46.5000 50 hurdat_atl main 468 468 O____________O hurdat_atl AL071881 46.3000 -47.5000 TS 50 0 47.5000 -44.5000 TS 50 15 64
1881261N35292 1881 39 NA NA NOT_NAMED 1881-09-21 15:00:00 TS 47.0213 -45.6618 main 521 521 P____________P AL071881 46.5909 -46.7711 TS 50 0 47.8822 -43.4431 TS 50 13 60
1881261N35292 1881 39 NA NA NOT_NAMED 1881-09-21 18:00:00 TS 47.3333 -44.9000 50 hurdat_atl main 577 576 O____________O hurdat_atl AL071881 46.9000 -46.0000 TS 50 0 48.2000 -42.7000 TS 50 13 61
1881261N35292 1881 39 NA NA NOT_NAMED 1881-09-21 21:00:00 TS 47.6548 -43.9720 main 642 642 P____________P AL071881 47.2075 -45.0374 TS 50 0 48.5492 -41.8412 TS 50 14 64
1881261N35292 1881 39 NA NA NOT_NAMED 1881-09-22 00:00:00 TS 47.9667 -43.0000 50 hurdat_atl main 716 716 O____________O hurdat_atl AL071881 47.5000 -44.0000 TS 50 0 48.9000 -41.0000 TS 50 14 65
1881261N35292 1881 39 NA NA NOT_NAMED 1881-09-22 03:00:00 TS 48.2545 -42.0364 main 791 791 P____________P AL071881 47.7572 -42.9765 TS 50 0 49.2492 -40.1561 TS 50 14 66
1881261N35292 1881 39 NA NA NOT_NAMED 1881-09-22 06:00:00 TS 48.5333 -41.1000 50 hurdat_atl main 858 858 O____________O hurdat_atl AL071881 48.0000 -42.0000 TS 50 0 49.6000 -39.3000 TS 50 12 67
1881261N35292 1881 39 NA NA NOT_NAMED 1881-09-22 09:00:00 TS 48.7161 -40.4109 main 910 910 P____________P AL071881 48.2483 -41.1485 TS 50 0 49.9515 -38.4128 TS 50 10 70
1881261N35292 1881 39 NA NA NOT_NAMED 1881-09-22 12:00:00 MX 48.8600 -39.7400 50 hurdat_atl main 963 963 O____________O hurdat_atl AL071881 48.5000 -40.3000 EX 50 -4 50.3000 -37.5000 TS 50 9 76
1881261N35292 1881 39 NA NA NOT_NAMED 1881-09-22 15:00:00 MX 48.9436 -39.0300 main 1013 1013 P_____________ AL071881 48.7491 -39.3439 EX 50 -4 TS 10 82
1881261N35292 1881 39 NA NA NOT_NAMED 1881-09-22 18:00:00 ET 49.0000 -38.3000 50 hurdat_atl main 1065 1065 O_____________ hurdat_atl AL071881 49.0000 -38.3000 EX 50 -4 12 77
1881261N35292 1881 39 NA NA NOT_NAMED 1881-09-22 21:00:00 ET 49.2270 -37.1700 main 1145 1145 P_____________ AL071881 49.2270 -37.1700 EX 45 -4 16 72
1881261N35292 1881 39 NA NA NOT_NAMED 1881-09-23 00:00:00 ET 49.5000 -36.0000 40 hurdat_atl main 1232 1232 O_____________ hurdat_atl AL071881 49.5000 -36.0000 EX 40 -4 16 67
1881261N35292 1881 39 NA NA NOT_NAMED 1881-09-23 03:00:00 ET 49.8841 -34.8429 main 1244 1231 P_____________ AL071881 49.8841 -34.8429 EX 40 -4 17 62
1881261N35292 1881 39 NA NA NOT_NAMED 1881-09-23 06:00:00 ET 50.3000 -33.7000 40 hurdat_atl main 1234 1229 O_____________ hurdat_atl AL071881 50.3000 -33.7000 EX 40 -4 16 62
1881261N35292 1881 39 NA NA NOT_NAMED 1881-09-23 09:00:00 ET 50.6643 -32.5687 main 1229 1229 P_____________ AL071881 50.6643 -32.5687 EX 40 -4 16 63
1881261N35292 1881 39 NA NA NOT_NAMED 1881-09-23 12:00:00 ET 51.0000 -31.5000 40 hurdat_atl main 1238 1236 O_____________ hurdat_atl AL071881 51.0000 -31.5000 EX 40 -4 14 63
1881261N35292 1881 39 NA NA NOT_NAMED 1881-09-23 15:00:00 ET 51.3058 -30.5400 main 1247 1242 P_____________ AL071881 51.3058 -30.5400 EX 40 -4 13 63
1881261N35292 1881 39 NA NA NOT_NAMED 1881-09-23 18:00:00 ET 51.6000 -29.6000 40 hurdat_atl main 1255 1229 O_____________ hurdat_atl AL071881 51.6000 -29.6000 EX 40 -4 14 64
1881261N35292 1881 39 NA NA NOT_NAMED 1881-09-23 21:00:00 ET 51.9000 -28.5419 main 1222 1158 P_____________ AL071881 51.9000 -28.5419 EX 40 -4 14 65
1881261N35292 1881 39 NA NA NOT_NAMED 1881-09-24 00:00:00 ET 52.2000 -27.5000 40 hurdat_atl main 1151 1094 O_____________ hurdat_atl AL071881 52.2000 -27.5000 EX 40 -4 13 64
1881261N35292 1881 39 NA NA NOT_NAMED 1881-09-24 03:00:00 ET 52.4906 -26.6047 main 1087 1032 P_____________ AL071881 52.4906 -26.6047 EX 40 -4 12 61
1881261N35292 1881 39 NA NA NOT_NAMED 1881-09-24 06:00:00 ET 52.8000 -25.7000 40 hurdat_atl main 1025 958 O_____________ hurdat_atl AL071881 52.8000 -25.7000 EX 40 -4 14 61
1881261N35292 1881 39 NA NA NOT_NAMED 1881-09-24 09:00:00 ET 53.1577 -24.6159 main 950 881 P_____________ AL071881 53.1577 -24.6159 EX 40 -4 15 62
1881261N35292 1881 39 NA NA NOT_NAMED 1881-09-24 12:00:00 ET 53.5000 -23.5000 40 hurdat_atl main 874 806 O_____________ hurdat_atl AL071881 53.5000 -23.5000 EX 40 -4 14 64
1881261N35292 1881 39 NA NA NOT_NAMED 1881-09-24 15:00:00 ET 53.7733 -22.4705 main 806 745 P_____________ AL071881 53.7733 -22.4705 EX 40 -4 13 67
1881261N35292 1881 39 NA NA NOT_NAMED 1881-09-24 18:00:00 ET 54.0000 -21.5000 40 hurdat_atl main 738 O_____________ hurdat_atl AL071881 54.0000 -21.5000 EX 40 -4 12 68

About IBTrACS Database

This database is a web-friendly format of International Best Track Archive for Climate Stewardship (IBTrACS), a global best track data archive curated by NOAA dating back to 1842.

Updated: 2021-10-21